createdAt,value
2018-03-17T00:00:46.203Z,1007.98
2018-03-17T00:01:46.100Z,1007.85
2018-03-17T00:02:45.984Z,1007.95
2018-03-17T00:03:45.885Z,1007.95
2018-03-17T00:04:45.778Z,1007.92
2018-03-17T00:05:45.677Z,1007.88
2018-03-17T00:06:45.560Z,1007.84
2018-03-17T00:07:45.449Z,1008.13
2018-03-17T00:08:45.344Z,1008.02
2018-03-17T00:09:45.225Z,1008.01
2018-03-17T00:10:45.119Z,1008.00
2018-03-17T00:11:45.005Z,1007.98
2018-03-17T00:12:44.901Z,1007.98
2018-03-17T00:13:44.784Z,1007.78
2018-03-17T00:14:44.680Z,1008.18
2018-03-17T00:15:44.566Z,1007.82
2018-03-17T00:16:44.462Z,1007.88
2018-03-17T00:17:44.360Z,1007.93
2018-03-17T00:18:44.243Z,1007.95
2018-03-17T00:19:44.140Z,1007.95
2018-03-17T00:20:44.028Z,1007.98
2018-03-17T00:21:43.921Z,1007.94
2018-03-17T00:22:44.057Z,1008.10
2018-03-17T00:23:43.701Z,1007.92
2018-03-17T00:24:43.594Z,1007.99
2018-03-17T00:25:43.482Z,1008.08
2018-03-17T00:26:43.416Z,1008.15
2018-03-17T00:27:43.264Z,1008.04
2018-03-17T00:28:43.151Z,1007.95
2018-03-17T00:29:43.048Z,1008.04
2018-03-17T00:30:42.929Z,1007.88
2018-03-17T00:31:42.825Z,1007.99
2018-03-17T00:32:42.714Z,1008.04
2018-03-17T00:33:42.613Z,1007.94
2018-03-17T00:34:42.490Z,1007.97
2018-03-17T00:35:42.390Z,1007.87
2018-03-17T00:36:42.286Z,1007.98
2018-03-17T00:37:42.172Z,1007.93
2018-03-17T00:38:42.053Z,1007.91
2018-03-17T00:39:41.952Z,1007.89
2018-03-17T00:40:41.844Z,1008.35
2018-03-17T00:41:41.729Z,1007.96
2018-03-17T00:42:41.625Z,1008.14
2018-03-17T00:43:41.509Z,1008.00
2018-03-17T00:44:41.409Z,1008.13
2018-03-17T00:45:41.291Z,1008.11
2018-03-17T00:46:41.188Z,1008.00
2018-03-17T00:47:41.076Z,1008.32
2018-03-17T00:48:40.968Z,1008.04
2018-03-17T00:49:40.855Z,1008.09
2018-03-17T00:50:40.757Z,1008.17
2018-03-17T00:51:40.634Z,1007.97
2018-03-17T00:52:40.533Z,1008.08
2018-03-17T00:53:40.418Z,1008.12
2018-03-17T00:54:40.310Z,1008.11
2018-03-17T00:55:40.196Z,1008.22
2018-03-17T00:56:40.093Z,1008.05
2018-03-17T00:57:39.981Z,1008.01
2018-03-17T00:58:39.872Z,1008.13
2018-03-17T00:59:39.758Z,1008.06
2018-03-17T01:00:39.659Z,1008.16
2018-03-17T01:01:39.542Z,1008.06
2018-03-17T01:02:39.438Z,1008.10
2018-03-17T01:03:39.317Z,1007.96
2018-03-17T01:04:39.214Z,1008.02
2018-03-17T01:05:39.103Z,1008.18
2018-03-17T01:06:38.996Z,1008.10
2018-03-17T01:07:38.887Z,1008.15
2018-03-17T01:08:38.778Z,1008.37
2018-03-17T01:09:38.665Z,1008.12
2018-03-17T01:10:38.558Z,1008.28
2018-03-17T01:11:38.447Z,1008.17
2018-03-17T01:12:38.351Z,1008.10
2018-03-17T01:13:38.227Z,1008.09
2018-03-17T01:14:38.120Z,1008.07
2018-03-17T01:15:38.004Z,1008.04
2018-03-17T01:16:37.900Z,1008.00
2018-03-17T01:17:38.037Z,1008.01
2018-03-17T01:18:37.687Z,1008.07
2018-03-17T01:19:37.565Z,1008.10
2018-03-17T01:20:37.463Z,1008.12
2018-03-17T01:21:37.347Z,1008.04
2018-03-17T01:22:37.245Z,1008.14
2018-03-17T01:23:37.131Z,1008.07
2018-03-17T01:24:37.027Z,1008.19
2018-03-17T01:25:36.912Z,1008.23
2018-03-17T01:26:36.805Z,1008.33
2018-03-17T01:27:36.989Z,1007.91
2018-03-17T01:28:36.590Z,1008.20
2018-03-17T01:29:36.476Z,1008.07
2018-03-17T01:30:36.371Z,1007.99
2018-03-17T01:31:36.255Z,1007.86
2018-03-17T01:32:36.147Z,1008.09
2018-03-17T01:33:36.031Z,1007.87
2018-03-17T01:34:35.932Z,1007.82
2018-03-17T01:35:35.815Z,1007.80
2018-03-17T01:36:35.712Z,1007.88
2018-03-17T01:37:35.594Z,1007.75
2018-03-17T01:38:35.478Z,1007.94
2018-03-17T01:39:35.379Z,1007.85
2018-03-17T01:40:35.263Z,1007.98
2018-03-17T01:41:35.156Z,1007.85
2018-03-17T01:42:35.039Z,1007.92
2018-03-17T01:43:34.940Z,1007.95
2018-03-17T01:44:34.824Z,1007.83
2018-03-17T01:45:34.722Z,1007.88
2018-03-17T01:46:34.605Z,1007.84
2018-03-17T01:47:34.746Z,1007.83
2018-03-17T01:48:34.382Z,1007.87
2018-03-17T01:49:34.280Z,1008.00
2018-03-17T01:50:34.170Z,1007.96
2018-03-17T01:51:34.059Z,1007.79
2018-03-17T01:52:33.947Z,1007.87
2018-03-17T01:53:33.840Z,1007.74
2018-03-17T01:54:33.724Z,1008.04
2018-03-17T01:55:33.625Z,1008.00
2018-03-17T01:56:33.507Z,1007.78
2018-03-17T01:57:33.391Z,1007.89
2018-03-17T01:58:33.299Z,1007.70
2018-03-17T01:59:33.173Z,1007.76
2018-03-17T02:00:33.067Z,1007.81
2018-03-17T02:01:32.950Z,1007.60
2018-03-17T02:02:32.850Z,1007.87
2018-03-17T02:03:32.736Z,1007.66
2018-03-17T02:04:32.630Z,1007.69
2018-03-17T02:05:32.512Z,1007.67
2018-03-17T02:06:32.410Z,1007.62
2018-03-17T02:07:32.296Z,1007.70
2018-03-17T02:08:32.190Z,1007.64
2018-03-17T02:09:32.078Z,1007.70
2018-03-17T02:10:31.960Z,1007.88
2018-03-17T02:11:31.859Z,1007.98
2018-03-17T02:12:31.741Z,1007.88
2018-03-17T02:13:31.636Z,1007.77
2018-03-17T02:14:31.520Z,1007.70
2018-03-17T02:15:31.423Z,1007.66
2018-03-17T02:16:31.305Z,1007.73
2018-03-17T02:17:31.200Z,1007.71
2018-03-17T02:18:31.088Z,1007.61
2018-03-17T02:19:30.984Z,1007.64
2018-03-17T02:20:30.866Z,1007.63
2018-03-17T02:21:30.751Z,1007.70
2018-03-17T02:22:30.645Z,1007.66
2018-03-17T02:23:30.532Z,1007.73
2018-03-17T02:24:30.424Z,1007.66
2018-03-17T02:25:30.310Z,1007.79
2018-03-17T02:26:30.207Z,1007.71
2018-03-17T02:27:30.095Z,1007.88
2018-03-17T02:28:29.986Z,1007.75
2018-03-17T02:29:29.873Z,1007.72
2018-03-17T02:30:29.759Z,1007.74
2018-03-17T02:31:29.653Z,1007.83
2018-03-17T02:32:29.538Z,1007.82
2018-03-17T02:33:29.433Z,1007.83
2018-03-17T02:34:29.317Z,1007.79
2018-03-17T02:35:29.213Z,1007.82
2018-03-17T02:36:29.101Z,1007.81
2018-03-17T02:37:28.996Z,1007.80
2018-03-17T02:38:28.882Z,1007.85
2018-03-17T02:39:28.776Z,1007.82
2018-03-17T02:40:28.660Z,1007.86
2018-03-17T02:41:28.548Z,1007.79
2018-03-17T02:42:28.444Z,1007.84
2018-03-17T02:43:28.324Z,1007.95
2018-03-17T02:44:28.222Z,1007.88
2018-03-17T02:45:28.106Z,1007.87
2018-03-17T02:46:28.017Z,1008.00
2018-03-17T02:47:27.888Z,1008.05
2018-03-17T02:48:27.787Z,1008.16
2018-03-17T02:49:27.682Z,1007.92
2018-03-17T02:50:27.569Z,1007.95
2018-03-17T02:51:27.450Z,1007.92
2018-03-17T02:52:27.338Z,1008.00
2018-03-17T02:53:27.233Z,1008.14
2018-03-17T02:54:27.118Z,1007.99
2018-03-17T02:55:27.011Z,1008.01
2018-03-17T02:56:26.897Z,1008.01
2018-03-17T02:57:27.095Z,1007.97
2018-03-17T02:58:26.679Z,1008.06
2018-03-17T02:59:26.573Z,1008.04
2018-03-17T03:00:26.458Z,1008.20
2018-03-17T03:01:26.344Z,1008.04
2018-03-17T03:02:26.235Z,1008.16
2018-03-17T03:03:26.125Z,1008.12
2018-03-17T03:04:26.018Z,1008.19
2018-03-17T03:05:25.905Z,1008.27
2018-03-17T03:06:25.804Z,1008.13
2018-03-17T03:07:25.686Z,1008.32
2018-03-17T03:08:25.578Z,1008.15
2018-03-17T03:09:25.468Z,1008.16
2018-03-17T03:10:25.350Z,1008.17
2018-03-17T03:11:25.244Z,1008.38
2018-03-17T03:12:25.130Z,1008.18
2018-03-17T03:13:25.025Z,1008.23
2018-03-17T03:14:24.909Z,1008.27
2018-03-17T03:15:24.811Z,1008.30
2018-03-17T03:16:24.693Z,1008.44
2018-03-17T03:17:24.591Z,1008.66
2018-03-17T03:18:24.470Z,1008.34
2018-03-17T03:19:24.372Z,1008.18
2018-03-17T03:20:24.252Z,1008.28
2018-03-17T03:21:24.138Z,1008.62
2018-03-17T03:22:24.036Z,1008.17
2018-03-17T03:23:23.917Z,1008.24
2018-03-17T03:24:23.818Z,1008.35
2018-03-17T03:25:23.698Z,1008.32
2018-03-17T03:26:23.598Z,1008.26
2018-03-17T03:27:23.733Z,1008.42
2018-03-17T03:28:23.375Z,1008.23
2018-03-17T03:29:23.259Z,1008.34
2018-03-17T03:30:23.145Z,1008.26
2018-03-17T03:31:23.046Z,1008.30
2018-03-17T03:32:22.924Z,1008.28
2018-03-17T03:33:22.825Z,1008.28
2018-03-17T03:34:22.753Z,1008.31
2018-03-17T03:35:22.604Z,1008.31
2018-03-17T03:36:22.486Z,1008.31
2018-03-17T03:37:22.375Z,1008.27
2018-03-17T03:38:22.272Z,1008.50
2018-03-17T03:39:22.151Z,1008.31
2018-03-17T03:40:22.047Z,1008.35
2018-03-17T03:41:21.933Z,1008.29
2018-03-17T03:42:22.080Z,1008.33
2018-03-17T03:43:21.713Z,1008.30
2018-03-17T03:44:21.610Z,1008.38
2018-03-17T03:45:21.497Z,1008.34
2018-03-17T03:46:21.379Z,1008.42
2018-03-17T03:47:21.291Z,1008.35
2018-03-17T03:48:21.158Z,1008.41
2018-03-17T03:49:21.059Z,1008.29
2018-03-17T03:50:20.956Z,1008.44
2018-03-17T03:51:20.839Z,1008.32
2018-03-17T03:52:20.720Z,1008.39
2018-03-17T03:53:20.605Z,1008.37
2018-03-17T03:54:20.505Z,1008.43
2018-03-17T03:55:20.389Z,1008.42
2018-03-17T03:56:20.283Z,1008.35
2018-03-17T03:57:20.170Z,1008.30
2018-03-17T03:58:20.067Z,1008.32
2018-03-17T03:59:19.953Z,1008.41
2018-03-17T04:00:19.833Z,1008.48
2018-03-17T04:01:19.732Z,1008.43
2018-03-17T04:02:19.613Z,1008.59
2018-03-17T04:03:19.510Z,1008.49
2018-03-17T04:04:19.398Z,1008.70
2018-03-17T04:05:19.294Z,1008.53
2018-03-17T04:06:19.179Z,1008.52
2018-03-17T04:07:19.086Z,1008.63
2018-03-17T04:08:18.959Z,1008.62
2018-03-17T04:09:18.856Z,1008.60
2018-03-17T04:10:18.736Z,1008.47
2018-03-17T04:11:18.634Z,1008.51
2018-03-17T04:12:18.771Z,1008.56
2018-03-17T04:13:18.406Z,1008.60
2018-03-17T04:14:18.297Z,1008.49
2018-03-17T04:15:18.181Z,1008.40
2018-03-17T04:16:18.071Z,1008.44
2018-03-17T04:17:17.967Z,1008.88
2018-03-17T04:18:17.850Z,1008.49
2018-03-17T04:19:17.744Z,1008.44
2018-03-17T04:20:17.629Z,1008.46
2018-03-17T04:21:17.528Z,1008.51
2018-03-17T04:22:17.408Z,1008.53
2018-03-17T04:23:17.293Z,1008.52
2018-03-17T04:24:17.194Z,1008.55
2018-03-17T04:25:17.073Z,1008.43
2018-03-17T04:26:16.970Z,1008.42
2018-03-17T04:27:17.155Z,1008.41
2018-03-17T04:28:16.753Z,1008.55
2018-03-17T04:29:16.640Z,1008.59
2018-03-17T04:30:16.523Z,1008.69
2018-03-17T04:31:16.437Z,1008.66
2018-03-17T04:32:16.310Z,1008.51
2018-03-17T04:33:16.197Z,1008.54
2018-03-17T04:34:16.085Z,1008.49
2018-03-17T04:35:15.978Z,1008.55
2018-03-17T04:36:15.878Z,1008.49
2018-03-17T04:37:15.748Z,1008.50
2018-03-17T04:38:15.644Z,1008.54
2018-03-17T04:39:15.532Z,1008.55
2018-03-17T04:40:15.424Z,1008.63
2018-03-17T04:41:15.309Z,1008.63
2018-03-17T04:42:15.196Z,1008.66
2018-03-17T04:43:15.092Z,1008.64
2018-03-17T04:44:14.974Z,1008.69
2018-03-17T04:45:14.874Z,1008.81
2018-03-17T04:46:14.755Z,1008.55
2018-03-17T04:47:14.650Z,1008.61
2018-03-17T04:48:14.534Z,1008.81
2018-03-17T04:49:14.429Z,1008.61
2018-03-17T04:50:14.323Z,1008.60
2018-03-17T04:51:14.228Z,1008.55
2018-03-17T04:52:14.100Z,1008.89
2018-03-17T04:53:13.981Z,1008.72
2018-03-17T04:54:13.868Z,1008.74
2018-03-17T04:55:13.766Z,1008.64
2018-03-17T04:56:13.650Z,1008.70
2018-03-17T04:57:13.792Z,1008.69
2018-03-17T04:58:13.427Z,1008.58
2018-03-17T04:59:13.326Z,1008.65
2018-03-17T05:00:13.207Z,1008.62
2018-03-17T05:01:13.092Z,1008.76
2018-03-17T05:02:12.993Z,1008.78
2018-03-17T05:03:12.876Z,1008.57
2018-03-17T05:04:12.773Z,1008.65
2018-03-17T05:05:12.658Z,1008.83
2018-03-17T05:06:12.543Z,1008.62
2018-03-17T05:07:12.439Z,1008.65
2018-03-17T05:08:12.331Z,1008.76
2018-03-17T05:09:12.220Z,1008.73
2018-03-17T05:10:12.100Z,1008.72
2018-03-17T05:11:11.995Z,1008.77
2018-03-17T05:12:11.883Z,1008.94
2018-03-17T05:13:11.769Z,1008.76
2018-03-17T05:14:11.663Z,1008.73
2018-03-17T05:15:11.545Z,1008.81
2018-03-17T05:16:11.442Z,1008.64
2018-03-17T05:17:11.333Z,1009.03
2018-03-17T05:18:11.217Z,1008.75
2018-03-17T05:19:11.108Z,1009.08
2018-03-17T05:20:10.991Z,1008.90
2018-03-17T05:21:10.889Z,1008.74
2018-03-17T05:22:11.021Z,1008.85
2018-03-17T05:23:10.673Z,1008.79
2018-03-17T05:24:10.557Z,1008.85
2018-03-17T05:25:10.437Z,1008.79
2018-03-17T05:26:10.334Z,1008.80
2018-03-17T05:27:10.221Z,1008.79
2018-03-17T05:28:10.120Z,1008.80
2018-03-17T05:29:10.000Z,1008.77
2018-03-17T05:30:09.899Z,1008.73
2018-03-17T05:31:09.779Z,1008.71
2018-03-17T05:32:09.915Z,1008.70
2018-03-17T05:33:09.561Z,1008.68
2018-03-17T05:34:09.456Z,1008.80
2018-03-17T05:35:09.343Z,1008.71
2018-03-17T05:36:09.229Z,1008.67
2018-03-17T05:37:09.111Z,1008.79
2018-03-17T05:38:09.006Z,1008.75
2018-03-17T05:39:08.889Z,1008.74
2018-03-17T05:40:08.791Z,1008.72
2018-03-17T05:41:08.671Z,1009.00
2018-03-17T05:42:08.867Z,1008.87
2018-03-17T05:43:08.456Z,1008.85
2018-03-17T05:44:08.348Z,1008.93
2018-03-17T05:45:08.234Z,1008.87
2018-03-17T05:46:08.118Z,1009.05
2018-03-17T05:47:08.014Z,1008.97
2018-03-17T05:48:07.897Z,1008.77
2018-03-17T05:49:07.804Z,1008.87
2018-03-17T05:50:07.683Z,1008.94
2018-03-17T05:51:07.569Z,1008.97
2018-03-17T05:52:07.459Z,1009.08
2018-03-17T05:53:07.345Z,1009.02
2018-03-17T05:54:07.244Z,1008.96
2018-03-17T05:55:07.125Z,1008.98
2018-03-17T05:56:07.022Z,1009.04
2018-03-17T05:57:06.914Z,1009.06
2018-03-17T05:58:06.790Z,1009.06
2018-03-17T05:59:06.687Z,1009.05
2018-03-17T06:00:06.571Z,1009.06
2018-03-17T06:01:06.468Z,1009.13
2018-03-17T06:02:06.352Z,1009.10
2018-03-17T06:03:06.247Z,1009.18
2018-03-17T06:04:06.139Z,1009.16
2018-03-17T06:05:06.017Z,1009.05
2018-03-17T06:06:05.912Z,1009.17
2018-03-17T06:07:06.001Z,1009.11
2018-03-17T06:08:05.699Z,1009.02
2018-03-17T06:09:05.582Z,1009.18
2018-03-17T06:10:05.481Z,1009.04
2018-03-17T06:11:05.360Z,1009.05
2018-03-17T06:12:05.245Z,1009.01
2018-03-17T06:13:05.141Z,1009.08
2018-03-17T06:14:05.045Z,1009.15
2018-03-17T06:15:04.921Z,1009.19
2018-03-17T06:16:04.804Z,1009.17
2018-03-17T06:17:04.705Z,1009.18
2018-03-17T06:18:04.586Z,1009.15
2018-03-17T06:19:04.483Z,1009.19
2018-03-17T06:20:04.366Z,1009.17
2018-03-17T06:21:04.263Z,1009.24
2018-03-17T06:22:04.148Z,1009.27
2018-03-17T06:23:04.038Z,1009.31
2018-03-17T06:24:03.967Z,1009.37
2018-03-17T06:25:03.813Z,1009.53
2018-03-17T06:26:03.716Z,1009.36
2018-03-17T06:27:03.849Z,1009.28
2018-03-17T06:28:03.490Z,1009.37
2018-03-17T06:29:03.374Z,1009.34
2018-03-17T06:30:03.271Z,1009.62
2018-03-17T06:31:03.159Z,1009.27
2018-03-17T06:32:03.056Z,1009.32
2018-03-17T06:33:02.936Z,1009.42
2018-03-17T06:34:02.825Z,1009.52
2018-03-17T06:35:02.732Z,1009.58
2018-03-17T06:36:02.606Z,1009.54
2018-03-17T06:37:02.498Z,1009.34
2018-03-17T06:38:02.386Z,1009.48
2018-03-17T06:39:02.291Z,1009.41
2018-03-17T06:40:02.170Z,1009.48
2018-03-17T06:41:02.063Z,1009.53
2018-03-17T06:42:01.949Z,1009.36
2018-03-17T06:43:01.840Z,1009.49
2018-03-17T06:44:01.725Z,1009.40
2018-03-17T06:45:01.610Z,1009.45
2018-03-17T06:46:01.509Z,1009.60
2018-03-17T06:47:01.390Z,1009.56
2018-03-17T06:48:01.292Z,1009.45
2018-03-17T06:49:01.174Z,1009.52
2018-03-17T06:50:01.124Z,1009.42
2018-03-17T06:51:00.951Z,1009.47
2018-03-17T06:52:01.148Z,1009.56
2018-03-17T06:53:00.731Z,1009.53
2018-03-17T06:54:00.633Z,1009.44
2018-03-17T06:55:00.518Z,1009.63
2018-03-17T06:56:00.402Z,1009.63
2018-03-17T06:57:00.293Z,1009.79
2018-03-17T06:58:00.179Z,1009.66
2018-03-17T06:59:00.079Z,1009.61
2018-03-17T06:59:59.961Z,1009.63
2018-03-17T07:00:59.855Z,1009.66
2018-03-17T07:01:59.741Z,1009.68
2018-03-17T07:02:59.641Z,1009.74
2018-03-17T07:03:59.523Z,1009.71
2018-03-17T07:04:59.411Z,1009.57
2018-03-17T07:05:59.308Z,1009.47
2018-03-17T07:06:59.249Z,1009.61
2018-03-17T07:07:59.089Z,1009.53
2018-03-17T07:08:58.968Z,1009.52
2018-03-17T07:09:58.863Z,1009.47
2018-03-17T07:10:58.747Z,1009.57
2018-03-17T07:11:58.647Z,1009.55
2018-03-17T07:12:58.535Z,1009.53
2018-03-17T07:13:58.417Z,1009.66
2018-03-17T07:14:58.310Z,1009.62
2018-03-17T07:15:58.194Z,1009.48
2018-03-17T07:16:58.090Z,1009.53
2018-03-17T07:17:57.974Z,1009.53
2018-03-17T07:18:57.871Z,1009.81
2018-03-17T07:19:57.756Z,1009.53
2018-03-17T07:20:57.644Z,1009.64
2018-03-17T07:21:57.791Z,1009.62
2018-03-17T07:22:57.425Z,1009.54
2018-03-17T07:23:57.317Z,1009.56
2018-03-17T07:24:57.202Z,1009.59
2018-03-17T07:25:57.103Z,1009.49
2018-03-17T07:26:56.987Z,1009.72
2018-03-17T07:27:56.883Z,1009.52
2018-03-17T07:28:56.767Z,1009.53
2018-03-17T07:29:56.649Z,1009.48
2018-03-17T07:30:56.548Z,1009.43
2018-03-17T07:31:56.432Z,1009.50
2018-03-17T07:32:56.328Z,1009.51
2018-03-17T07:33:56.210Z,1009.43
2018-03-17T07:34:56.109Z,1009.61
2018-03-17T07:35:55.994Z,1009.64
2018-03-17T07:36:55.885Z,1009.45
2018-03-17T07:37:55.815Z,1009.51
2018-03-17T07:38:55.667Z,1009.45
2018-03-17T07:39:55.551Z,1009.77
2018-03-17T07:40:55.436Z,1009.68
2018-03-17T07:41:55.334Z,1009.56
2018-03-17T07:42:55.217Z,1009.61
2018-03-17T07:43:55.113Z,1009.79
2018-03-17T07:44:54.998Z,1009.48
2018-03-17T07:45:54.898Z,1009.59
2018-03-17T07:46:54.782Z,1009.59
2018-03-17T07:47:54.678Z,1009.61
2018-03-17T07:48:54.560Z,1009.52
2018-03-17T07:49:54.449Z,1009.56
2018-03-17T07:50:54.341Z,1009.63
2018-03-17T07:51:54.226Z,1009.47
2018-03-17T07:52:54.121Z,1009.56
2018-03-17T07:53:54.006Z,1009.54
2018-03-17T07:54:53.906Z,1009.62
2018-03-17T07:55:53.791Z,1009.44
2018-03-17T07:56:53.686Z,1009.47
2018-03-17T07:57:53.568Z,1009.41
2018-03-17T07:58:53.467Z,1009.53
2018-03-17T07:59:53.353Z,1009.42
2018-03-17T08:00:53.237Z,1009.52
2018-03-17T08:01:53.128Z,1009.52
2018-03-17T08:02:53.014Z,1009.52
2018-03-17T08:03:52.913Z,1009.54
2018-03-17T08:04:52.798Z,1009.40
2018-03-17T08:05:52.743Z,1009.39
2018-03-17T08:06:52.574Z,1009.75
2018-03-17T08:07:52.478Z,1009.55
2018-03-17T08:08:52.404Z,1009.37
2018-03-17T08:09:52.255Z,1009.51
2018-03-17T08:10:52.137Z,1009.65
2018-03-17T08:11:52.038Z,1009.48
2018-03-17T08:12:51.918Z,1009.74
2018-03-17T08:13:51.813Z,1009.55
2018-03-17T08:14:51.702Z,1009.60
2018-03-17T08:15:51.599Z,1009.58
2018-03-17T08:16:51.484Z,1009.50
2018-03-17T08:17:51.381Z,1009.44
2018-03-17T08:18:51.264Z,1009.56
2018-03-17T08:19:51.156Z,1009.39
2018-03-17T08:20:51.047Z,1009.51
2018-03-17T08:21:50.937Z,1009.47
2018-03-17T08:22:50.825Z,1009.48
2018-03-17T08:23:50.724Z,1009.45
2018-03-17T08:24:50.608Z,1009.50
2018-03-17T08:25:50.503Z,1009.63
2018-03-17T08:26:50.396Z,1009.63
2018-03-17T08:27:50.280Z,1009.43
2018-03-17T08:28:50.163Z,1009.46
2018-03-17T08:29:50.065Z,1009.56
2018-03-17T08:30:49.946Z,1009.58
2018-03-17T08:31:49.843Z,1009.55
2018-03-17T08:32:49.729Z,1009.58
2018-03-17T08:33:49.625Z,1009.66
2018-03-17T08:34:49.511Z,1009.62
2018-03-17T08:35:49.404Z,1009.53
2018-03-17T08:36:49.291Z,1009.60
2018-03-17T08:37:49.186Z,1009.58
2018-03-17T08:38:49.076Z,1009.55
2018-03-17T08:39:48.970Z,1009.82
2018-03-17T08:40:48.852Z,1009.67
2018-03-17T08:41:48.996Z,1009.71
2018-03-17T08:42:48.634Z,1009.78
2018-03-17T08:43:48.531Z,1009.65
2018-03-17T08:44:48.410Z,1009.67
2018-03-17T08:45:48.313Z,1009.68
2018-03-17T08:46:48.195Z,1009.73
2018-03-17T08:47:48.092Z,1009.63
2018-03-17T08:48:47.978Z,1009.78
2018-03-17T08:49:47.870Z,1009.73
2018-03-17T08:50:47.766Z,1009.81
2018-03-17T08:51:47.650Z,1009.77
2018-03-17T08:52:47.551Z,1009.83
2018-03-17T08:53:47.435Z,1009.74
2018-03-17T08:54:47.332Z,1009.71
2018-03-17T08:55:47.217Z,1009.77
2018-03-17T08:56:47.110Z,1009.69
2018-03-17T08:57:46.995Z,1009.65
2018-03-17T08:58:46.948Z,1009.73
2018-03-17T08:59:46.790Z,1009.66
2018-03-17T09:00:46.675Z,1009.81
2018-03-17T09:01:46.569Z,1009.77
2018-03-17T09:02:46.456Z,1009.73
2018-03-17T09:03:46.349Z,1009.54
2018-03-17T09:04:46.254Z,1009.53
2018-03-17T09:05:46.148Z,1009.60
2018-03-17T09:06:46.029Z,1009.57
2018-03-17T09:07:45.910Z,1009.61
2018-03-17T09:08:45.814Z,1009.45
2018-03-17T09:09:45.704Z,1009.52
2018-03-17T09:10:45.626Z,1009.60
2018-03-17T09:11:45.488Z,1009.42
2018-03-17T09:12:45.372Z,1009.44
2018-03-17T09:13:45.279Z,1009.48
2018-03-17T09:14:45.165Z,1009.59
2018-03-17T09:15:45.046Z,1009.39
2018-03-17T09:16:44.943Z,1009.53
2018-03-17T09:17:44.828Z,1009.28
2018-03-17T09:18:44.737Z,1009.27
2018-03-17T09:19:44.620Z,1009.33
2018-03-17T09:20:44.508Z,1009.39
2018-03-17T09:21:44.405Z,1009.37
2018-03-17T09:22:44.299Z,1009.34
2018-03-17T09:23:44.185Z,1009.42
2018-03-17T09:24:44.083Z,1009.36
2018-03-17T09:25:43.967Z,1009.38
2018-03-17T09:26:43.860Z,1009.38
2018-03-17T09:27:43.761Z,1009.26
2018-03-17T09:28:43.640Z,1009.33
2018-03-17T09:29:43.539Z,1009.31
2018-03-17T09:30:43.438Z,1009.42
2018-03-17T09:31:43.323Z,1009.39
2018-03-17T09:32:43.216Z,1009.26
2018-03-17T09:33:43.112Z,1009.35
2018-03-17T09:34:43.057Z,1009.28
2018-03-17T09:35:42.893Z,1009.40
2018-03-17T09:36:42.789Z,1009.35
2018-03-17T09:37:42.673Z,1009.30
2018-03-17T09:38:42.572Z,1009.34
2018-03-17T09:39:42.471Z,1009.28
2018-03-17T09:40:42.350Z,1009.32
2018-03-17T09:41:42.248Z,1009.41
2018-03-17T09:42:42.148Z,1009.46
2018-03-17T09:43:42.029Z,1009.49
2018-03-17T09:44:41.925Z,1009.40
2018-03-17T09:45:41.821Z,1009.68
2018-03-17T09:46:41.710Z,1009.36
2018-03-17T09:47:41.605Z,1009.46
2018-03-17T09:48:41.503Z,1009.38
2018-03-17T09:49:41.383Z,1009.30
2018-03-17T09:50:41.280Z,1009.33
2018-03-17T09:51:41.181Z,1009.44
2018-03-17T09:52:41.093Z,1009.40
2018-03-17T09:53:40.959Z,1009.39
2018-03-17T09:54:40.855Z,1009.35
2018-03-17T09:55:40.742Z,1009.37
2018-03-17T09:56:40.643Z,1009.40
2018-03-17T09:57:40.536Z,1009.37
2018-03-17T09:58:40.417Z,1009.41
2018-03-17T09:59:40.315Z,1009.45
2018-03-17T10:00:40.210Z,1009.52
2018-03-17T10:01:40.094Z,1009.37
2018-03-17T10:02:39.991Z,1009.32
2018-03-17T10:03:39.887Z,1009.38
2018-03-17T10:04:39.772Z,1009.35
2018-03-17T10:05:39.667Z,1009.25
2018-03-17T10:06:39.575Z,1009.32
2018-03-17T10:07:39.454Z,1009.45
2018-03-17T10:08:39.346Z,1009.36
2018-03-17T10:09:39.247Z,1009.37
2018-03-17T10:10:39.127Z,1009.33
2018-03-17T10:11:39.023Z,1009.37
2018-03-17T10:12:38.924Z,1009.54
2018-03-17T10:13:38.805Z,1009.33
2018-03-17T10:14:38.701Z,1009.34
2018-03-17T10:15:38.598Z,1009.39
2018-03-17T10:16:38.485Z,1009.46
2018-03-17T10:17:38.381Z,1009.52
2018-03-17T10:18:38.274Z,1009.38
2018-03-17T10:19:38.159Z,1009.52
2018-03-17T10:20:38.059Z,1009.34
2018-03-17T10:21:37.956Z,1009.38
2018-03-17T10:22:37.841Z,1009.36
2018-03-17T10:23:37.763Z,1009.12
2018-03-17T10:24:37.634Z,1009.29
2018-03-17T10:25:37.516Z,1009.31
2018-03-17T10:26:37.412Z,1009.26
2018-03-17T10:27:37.308Z,1009.46
2018-03-17T10:28:37.195Z,1009.77
2018-03-17T10:29:37.091Z,1009.37
2018-03-17T10:30:36.989Z,1009.12
2018-03-17T10:31:36.882Z,1009.19
2018-03-17T10:32:36.770Z,1009.31
2018-03-17T10:33:36.663Z,1009.21
2018-03-17T10:34:36.552Z,1009.30
2018-03-17T10:35:36.449Z,1009.22
2018-03-17T10:36:36.341Z,1009.11
2018-03-17T10:37:36.237Z,1009.27
2018-03-17T10:38:36.125Z,1009.16
2018-03-17T10:39:36.022Z,1009.17
2018-03-17T10:40:35.915Z,1009.22
2018-03-17T10:41:36.052Z,1009.28
2018-03-17T10:42:35.694Z,1009.03
2018-03-17T10:43:35.592Z,1009.13
2018-03-17T10:44:35.477Z,1009.28
2018-03-17T10:45:35.374Z,1009.00
2018-03-17T10:46:35.266Z,1009.10
2018-03-17T10:47:35.157Z,1009.08
2018-03-17T10:48:35.054Z,1009.10
2018-03-17T10:49:34.940Z,1009.30
2018-03-17T10:50:34.832Z,1009.08
2018-03-17T10:51:34.727Z,1009.09
2018-03-17T10:52:34.614Z,1009.03
2018-03-17T10:53:34.512Z,1009.00
2018-03-17T10:54:34.409Z,1009.03
2018-03-17T10:55:34.301Z,1008.99
2018-03-17T10:56:34.185Z,1008.99
2018-03-17T10:57:34.085Z,1008.95
2018-03-17T10:58:33.969Z,1008.96
2018-03-17T10:59:33.862Z,1009.21
2018-03-17T11:00:33.761Z,1008.94
2018-03-17T11:01:33.656Z,1008.89
2018-03-17T11:02:33.542Z,1008.90
2018-03-17T11:03:33.441Z,1008.99
2018-03-17T11:04:33.340Z,1008.98
2018-03-17T11:05:33.221Z,1009.08
2018-03-17T11:06:33.115Z,1009.12
2018-03-17T11:07:33.014Z,1009.27
2018-03-17T11:08:32.896Z,1009.12
2018-03-17T11:09:32.834Z,1009.06
2018-03-17T11:10:32.690Z,1009.09
2018-03-17T11:11:32.586Z,1009.05
2018-03-17T11:12:32.471Z,1009.04
2018-03-17T11:13:32.374Z,1009.12
2018-03-17T11:14:32.265Z,1008.99
2018-03-17T11:15:32.151Z,1009.16
2018-03-17T11:16:32.045Z,1008.94
2018-03-17T11:17:31.941Z,1008.87
2018-03-17T11:18:31.838Z,1008.95
2018-03-17T11:19:31.722Z,1009.09
2018-03-17T11:20:31.618Z,1009.01
2018-03-17T11:21:31.515Z,1009.08
2018-03-17T11:22:31.405Z,1008.97
2018-03-17T11:23:31.296Z,1009.12
2018-03-17T11:24:31.193Z,1009.06
2018-03-17T11:25:31.078Z,1009.08
2018-03-17T11:26:30.978Z,1009.14
2018-03-17T11:27:30.873Z,1009.06
2018-03-17T11:28:30.761Z,1009.04
2018-03-17T11:29:30.652Z,1009.19
2018-03-17T11:30:30.553Z,1009.10
2018-03-17T11:31:30.445Z,1009.20
2018-03-17T11:32:30.336Z,1009.07
2018-03-17T11:33:30.230Z,1009.26
2018-03-17T11:34:30.122Z,1009.11
2018-03-17T11:35:30.006Z,1009.08
2018-03-17T11:36:29.908Z,1009.16
2018-03-17T11:37:29.799Z,1009.12
2018-03-17T11:38:29.684Z,1009.03
2018-03-17T11:39:29.580Z,1009.07
2018-03-17T11:40:29.477Z,1009.11
2018-03-17T11:41:29.363Z,1009.30
2018-03-17T11:42:29.262Z,1009.06
2018-03-17T11:43:29.155Z,1009.13
2018-03-17T11:44:29.040Z,1008.99
2018-03-17T11:45:28.939Z,1008.98
2018-03-17T11:46:28.836Z,1008.91
2018-03-17T11:47:28.729Z,1008.99
2018-03-17T11:48:28.613Z,1008.97
2018-03-17T11:49:28.514Z,1008.89
2018-03-17T11:50:28.411Z,1008.96
2018-03-17T11:51:28.290Z,1009.02
2018-03-17T11:52:28.191Z,1008.94
2018-03-17T11:53:28.085Z,1008.80
2018-03-17T11:54:27.973Z,1008.87
2018-03-17T11:55:27.866Z,1009.04
2018-03-17T11:56:27.768Z,1008.90
2018-03-17T11:57:27.659Z,1009.02
2018-03-17T11:58:27.543Z,1008.85
2018-03-17T11:59:27.440Z,1009.04
2018-03-17T12:00:27.339Z,1008.96
2018-03-17T12:01:27.225Z,1008.86
2018-03-17T12:02:27.118Z,1008.91
2018-03-17T12:03:27.019Z,1008.82
2018-03-17T12:04:26.902Z,1008.88